Big Bear Station Historical Data
Daily Summary for September 9, 2017 Units:  English    Metric   Both
« Previous Day
Next Day »
Daily Weekly Monthly Yearly Custom
  High: Low: Average:
Temperature: 74.1 °F 47.5 °F 57.5 °F
Dew Point: 53.5 °F 42.7 °F 47.9 °F
Humidity: 96 % 40 % 73 %
Wind Speed: 5.3 mph 0.0 mph 1 mph
Wind Gust: -999.0 mph - -
Wind:- - WNW
Pressure: 30.29 in 30.22 in -
Precipitation: 0.09 in    
Historical Graphs
 
 
Tabular Data for September 9, 2017
Time Temperature Dew Point Pressure Wind Wind Speed Wind Gust Humidity Rainfall Rate (Hourly)
00:00 55.8 °F 49.0 °F 30.24 in Calm   -999.0 mph 78 % 0 in
00:16 55.9 °F 48.4 °F 30.23 in Calm   -999.0 mph 76 % 0 in
00:31 56.1 °F 47.6 °F 30.23 in Calm   -999.0 mph 73 % 0 in
00:46 56.1 °F 49.7 °F 30.23 in Calm   -999.0 mph 79 % 0 in
01:01 55.8 °F 49.0 °F 30.22 in Calm   -999.0 mph 78 % 0 in
01:16 55.0 °F 47.9 °F 30.23 in Calm   -999.0 mph 77 % 0 in
01:32 54.7 °F 46.9 °F 30.23 in Calm   -999.0 mph 75 % 0 in
01:47 54.5 °F 46.0 °F 30.22 in Calm   -999.0 mph 73 % 0 in
02:02 54.1 °F 45.6 °F 30.22 in Calm   -999.0 mph 73 % 0 in
02:17 54.0 °F 45.2 °F 30.22 in Calm   -999.0 mph 72 % 0 in
02:32 54.0 °F 45.2 °F 30.22 in Calm   -999.0 mph 72 % 0 in
02:48 53.6 °F 44.4 °F 30.22 in Calm   -999.0 mph 71 % 0 in
03:03 53.1 °F 44.3 °F 30.22 in Calm   -999.0 mph 72 % 0 in
03:18 52.9 °F 44.1 °F 30.22 in Calm   -999.0 mph 72 % 0 in
03:33 53.1 °F 44.3 °F 30.22 in Calm   -999.0 mph 72 % 0 in
03:48 53.2 °F 44.8 °F 30.22 in Calm   -999.0 mph 73 % 0 in
04:04 53.4 °F 45.0 °F 30.22 in Calm   -999.0 mph 73 % 0 in
04:19 54.1 °F 45.3 °F 30.23 in Calm   -999.0 mph 72 % 0 in
04:34 52.7 °F 47.4 °F 30.23 in South 1.7 mph -999.0 mph 82 % 0 in
04:49 52.0 °F 47.0 °F 30.23 in Calm   -999.0 mph 83 % 0 in
05:05 51.6 °F 47.2 °F 30.23 in Calm   -999.0 mph 85 % 0 in
05:20 51.4 °F 47.0 °F 30.23 in Calm   -999.0 mph 85 % 0 in
05:35 51.4 °F 47.0 °F 30.23 in Calm   -999.0 mph 85 % 0 in
05:50 50.9 °F 46.9 °F 30.23 in Calm   -999.0 mph 86 % 0 in
06:05 50.7 °F 46.7 °F 30.24 in Calm   -999.0 mph 86 % 0 in
06:21 50.5 °F 45.8 °F 30.24 in Calm   -999.0 mph 84 % 0 in
06:36 50.4 °F 45.4 °F 30.24 in Calm   -999.0 mph 83 % 0 in
06:51 49.8 °F 45.2 °F 30.25 in Calm   -999.0 mph 84 % 0 in
07:06 49.6 °F 45.3 °F 30.25 in Calm   -999.0 mph 85 % 0 in
07:21 49.5 °F 44.9 °F 30.25 in Calm   -999.0 mph 84 % 0 in
07:37 49.5 °F 44.9 °F 30.25 in Calm   -999.0 mph 84 % 0 in
07:52 50.2 °F 45.9 °F 30.26 in Calm   -999.0 mph 85 % 0 in
08:07 50.9 °F 46.2 °F 30.26 in Calm   -999.0 mph 84 % 0 in
08:22 52.0 °F 46.7 °F 30.26 in Calm   -999.0 mph 82 % 0 in
08:37 55.9 °F 50.2 °F 30.26 in Calm   -999.0 mph 81 % 0 in
08:53 58.5 °F 50.2 °F 30.26 in NNW 3.2 mph -999.0 mph 74 % 0 in
09:08 58.6 °F 49.2 °F 30.26 in Calm   -999.0 mph 71 % 0 in
09:23 59.2 °F 44.9 °F 30.27 in Calm   -999.0 mph 59 % 0 in
09:38 61.0 °F 42.7 °F 30.27 in NNW 2.2 mph -999.0 mph 51 % 0 in
09:54 62.1 °F 45.7 °F 30.27 in Calm   -999.0 mph 55 % 0 in
10:09 64.2 °F 46.2 °F 30.27 in NW 5.3 mph -999.0 mph 52 % 0 in
10:24 64.9 °F 46.3 °F 30.27 in North 2.7 mph -999.0 mph 51 % 0 in
10:39 64.9 °F 45.3 °F 30.27 in NNE 2.7 mph -999.0 mph 49 % 0 in
10:54 65.3 °F 44.0 °F 30.27 in NNW 2.7 mph -999.0 mph 46 % 0 in
11:10 65.8 °F 46.6 °F 30.27 in North 2.2 mph -999.0 mph 50 % 0 in
11:25 65.7 °F 45.5 °F 30.27 in NW 3.2 mph -999.0 mph 48 % 0 in
11:40 66.4 °F 43.8 °F 30.27 in NW 2.2 mph -999.0 mph 44 % 0 in
11:55 66.6 °F 44.0 °F 30.27 in South 2.7 mph -999.0 mph 44 % 0 in
12:10 66.9 °F 47.1 °F 30.27 in WNW 4.2 mph -999.0 mph 49 % 0 in
12:26 68.0 °F 47.6 °F 30.26 in NW 3.2 mph -999.0 mph 48 % 0 in
12:41 72.3 °F 49.2 °F 30.26 in NW 4.2 mph -999.0 mph 44 % 0 in
12:56 71.2 °F 49.9 °F 30.26 in NNW 2.7 mph -999.0 mph 47 % 0 in
13:12 72.3 °F 50.9 °F 30.26 in WNW 5.3 mph -999.0 mph 47 % 0 in
13:27 74.1 °F 50.8 °F 30.26 in NW 4.7 mph -999.0 mph 44 % 0 in
13:42 70.3 °F 50.2 °F 30.26 in ENE 2.2 mph -999.0 mph 49 % 0 in
13:57 72.3 °F 50.4 °F 30.26 in NW 4.7 mph -999.0 mph 46 % 0 in
14:13 72.7 °F 50.7 °F 30.26 in NNW 4.2 mph -999.0 mph 46 % 0 in
14:28 73.0 °F 47.9 °F 30.26 in NW 4.7 mph -999.0 mph 41 % 0 in
14:43 73.0 °F 47.3 °F 30.25 in NW 4.7 mph -999.0 mph 40 % 0 in
14:59 71.1 °F 46.8 °F 30.25 in NNW 4.2 mph -999.0 mph 42 % 0 in
15:14 71.4 °F 49.5 °F 30.24 in NW 4.2 mph -999.0 mph 46 % 0 in
15:29 70.3 °F 48.0 °F 30.24 in Calm   -999.0 mph 45 % 0 in
15:45 69.8 °F 51.4 °F 30.24 in Calm   -999.0 mph 52 % 0 in
16:00 67.8 °F 51.5 °F 30.24 in Calm   -999.0 mph 56 % 0 in
16:15 66.2 °F 52.4 °F 30.24 in Calm   -999.0 mph 61 % 0 in
16:30 64.6 °F 53.4 °F 30.25 in Calm   -999.0 mph 67 % 0 in
16:45 61.9 °F 52.0 °F 30.26 in NNW 3.2 mph -999.0 mph 70 % 0 in
17:01 59.0 °F 49.6 °F 30.26 in NW 3.7 mph -999.0 mph 71 % 0 in
17:16 58.6 °F 49.2 °F 30.27 in NW 2.2 mph -999.0 mph 71 % 0 in
17:31 58.6 °F 51.4 °F 30.26 in NW 2.7 mph -999.0 mph 77 % 0 in
17:46 59.0 °F 53.2 °F 30.27 in Calm   -999.0 mph 81 % 0 in
18:01 58.3 °F 53.5 °F 30.27 in Calm   -999.0 mph 84 % 0 in
18:17 57.2 °F 53.4 °F 30.27 in Calm   -999.0 mph 87 % 0 in
18:32 57.0 °F 53.2 °F 30.27 in Calm   -999.0 mph 87 % 0 in
18:47 55.4 °F 51.6 °F 30.27 in Calm   -999.0 mph 87 % 0 in
19:02 54.5 °F 51.9 °F 30.27 in Calm   -999.0 mph 91 % 0 in
19:17 53.6 °F 50.7 °F 30.27 in Calm   -999.0 mph 90 % 0 in
19:33 53.2 °F 50.9 °F 30.27 in Calm   -999.0 mph 92 % 0 in
19:48 52.9 °F 50.9 °F 30.27 in Calm   -999.0 mph 93 % 0 in
20:04 52.5 °F 50.5 °F 30.27 in Calm   -999.0 mph 93 % 0 in
20:19 51.8 °F 49.8 °F 30.27 in Calm   -999.0 mph 93 % 0 in
20:34 51.3 °F 49.6 °F 30.27 in Calm   -999.0 mph 94 % 0 in
20:49 50.7 °F 49.0 °F 30.27 in Calm   -999.0 mph 94 % 0 in
21:05 50.2 °F 48.5 °F 30.28 in Calm   -999.0 mph 94 % 0 in
21:20 49.6 °F 47.9 °F 30.28 in Calm   -999.0 mph 94 % 0 in
21:35 49.3 °F 47.6 °F 30.27 in Calm   -999.0 mph 94 % 0 in
21:50 48.9 °F 47.2 °F 30.28 in Calm   -999.0 mph 94 % 0 in
22:05 48.7 °F 47.1 °F 30.28 in Calm   -999.0 mph 94 % 0 in
22:21 48.2 °F 46.6 °F 30.28 in Calm   -999.0 mph 94 % 0 in
22:36 48.0 °F 46.6 °F 30.28 in Calm   -999.0 mph 95 % 0 in
22:51 48.0 °F 46.9 °F 30.28 in Calm   -999.0 mph 96 % 0 in
23:06 47.7 °F 46.6 °F 30.28 in Calm   -999.0 mph 96 % 0 in
23:21 47.7 °F 46.6 °F 30.29 in Calm   -999.0 mph 96 % 0 in
23:37 47.5 °F 46.4 °F 30.29 in Calm   -999.0 mph 96 % 0 in
23:52 47.8 °F 46.7 °F 30.29 in Calm   -999.0 mph 96 % 0 in
Big Bear CA Weather
Compliments of Weather Underground - 1.5 mb